sensor_id;sensor_type;location;lat;lon;timestamp;P1;durP1;ratioP1;P2;durP2;ratioP2
74108;SDS011;62466;47.566;7.786;2023-01-10T00:01:50;9.27;;;2.88;;
74108;SDS011;62466;47.566;7.786;2023-01-10T00:04:16;3.17;;;2.30;;
74108;SDS011;62466;47.566;7.786;2023-01-10T00:06:41;5.95;;;2.60;;
74108;SDS011;62466;47.566;7.786;2023-01-10T00:09:08;4.95;;;2.85;;
74108;SDS011;62466;47.566;7.786;2023-01-10T00:11:34;3.50;;;2.47;;
74108;SDS011;62466;47.566;7.786;2023-01-10T00:14:18;5.57;;;2.42;;
74108;SDS011;62466;47.566;7.786;2023-01-10T00:16:44;7.00;;;2.70;;
74108;SDS011;62466;47.566;7.786;2023-01-10T00:19:09;5.40;;;2.33;;
74108;SDS011;62466;47.566;7.786;2023-01-10T00:21:35;2.95;;;2.45;;
74108;SDS011;62466;47.566;7.786;2023-01-10T00:24:01;4.13;;;2.53;;
74108;SDS011;62466;47.566;7.786;2023-01-10T00:26:48;7.60;;;2.30;;
74108;SDS011;62466;47.566;7.786;2023-01-10T00:29:18;2.92;;;2.65;;
74108;SDS011;62466;47.566;7.786;2023-01-10T00:31:48;2.63;;;2.10;;
74108;SDS011;62466;47.566;7.786;2023-01-10T00:34:13;6.25;;;2.50;;
74108;SDS011;62466;47.566;7.786;2023-01-10T00:36:39;3.90;;;2.88;;
74108;SDS011;62466;47.566;7.786;2023-01-10T00:39:06;5.75;;;2.55;;
74108;SDS011;62466;47.566;7.786;2023-01-10T00:41:32;5.57;;;2.67;;
74108;SDS011;62466;47.566;7.786;2023-01-10T00:44:16;4.15;;;2.30;;
74108;SDS011;62466;47.566;7.786;2023-01-10T00:46:41;5.70;;;2.30;;
74108;SDS011;62466;47.566;7.786;2023-01-10T00:49:07;9.10;;;2.70;;
74108;SDS011;62466;47.566;7.786;2023-01-10T00:51:33;3.10;;;2.08;;
74108;SDS011;62466;47.566;7.786;2023-01-10T00:53:58;3.90;;;2.97;;
74108;SDS011;62466;47.566;7.786;2023-01-10T00:56:24;5.43;;;2.35;;
74108;SDS011;62466;47.566;7.786;2023-01-10T00:58:50;2.90;;;2.63;;
74108;SDS011;62466;47.566;7.786;2023-01-10T01:01:15;4.97;;;2.58;;
74108;SDS011;62466;47.566;7.786;2023-01-10T01:03:41;8.38;;;2.63;;
74108;SDS011;62466;47.566;7.786;2023-01-10T01:06:07;6.57;;;2.30;;
74108;SDS011;62466;47.566;7.786;2023-01-10T01:08:33;5.10;;;2.78;;
74108;SDS011;62466;47.566;7.786;2023-01-10T01:10:59;4.90;;;2.65;;
74108;SDS011;62466;47.566;7.786;2023-01-10T01:13:24;2.33;;;2.20;;
74108;SDS011;62466;47.566;7.786;2023-01-10T01:15:50;5.88;;;2.90;;
74108;SDS011;62466;47.566;7.786;2023-01-10T01:18:17;3.65;;;2.28;;
74108;SDS011;62466;47.566;7.786;2023-01-10T01:20:45;2.25;;;1.95;;
74108;SDS011;62466;47.566;7.786;2023-01-10T01:23:12;5.32;;;2.85;;
74108;SDS011;62466;47.566;7.786;2023-01-10T01:25:38;3.00;;;2.20;;
74108;SDS011;62466;47.566;7.786;2023-01-10T01:28:04;4.60;;;2.55;;
74108;SDS011;62466;47.566;7.786;2023-01-10T01:30:30;3.33;;;2.30;;
74108;SDS011;62466;47.566;7.786;2023-01-10T01:32:55;8.95;;;2.63;;
74108;SDS011;62466;47.566;7.786;2023-01-10T01:35:21;4.50;;;2.58;;
74108;SDS011;62466;47.566;7.786;2023-01-10T01:37:47;6.13;;;2.53;;
74108;SDS011;62466;47.566;7.786;2023-01-10T01:40:13;4.75;;;2.50;;
74108;SDS011;62466;47.566;7.786;2023-01-10T01:47:43;4.68;;;2.33;;
74108;SDS011;62466;47.566;7.786;2023-01-10T01:50:14;3.45;;;2.30;;
74108;SDS011;62466;47.566;7.786;2023-01-10T01:53:02;4.93;;;2.13;;
74108;SDS011;62466;47.566;7.786;2023-01-10T01:55:50;6.13;;;3.03;;
74108;SDS011;62466;47.566;7.786;2023-01-10T01:58:18;4.05;;;2.33;;
74108;SDS011;62466;47.566;7.786;2023-01-10T02:00:47;6.40;;;2.85;;
74108;SDS011;62466;47.566;7.786;2023-01-10T02:03:13;4.05;;;2.40;;
74108;SDS011;62466;47.566;7.786;2023-01-10T02:05:39;2.75;;;2.55;;
74108;SDS011;62466;47.566;7.786;2023-01-10T02:08:06;3.00;;;2.40;;
74108;SDS011;62466;47.566;7.786;2023-01-10T02:13:18;2.80;;;2.63;;
74108;SDS011;62466;47.566;7.786;2023-01-10T02:15:45;5.68;;;2.30;;
74108;SDS011;62466;47.566;7.786;2023-01-10T02:18:10;3.25;;;2.50;;
74108;SDS011;62466;47.566;7.786;2023-01-10T02:20:50;3.42;;;2.42;;
74108;SDS011;62466;47.566;7.786;2023-01-10T02:23:32;2.97;;;2.10;;
74108;SDS011;62466;47.566;7.786;2023-01-10T02:28:42;2.75;;;2.55;;
74108;SDS011;62466;47.566;7.786;2023-01-10T02:35:03;5.78;;;3.03;;
74108;SDS011;62466;47.566;7.786;2023-01-10T02:42:38;5.32;;;2.90;;
74108;SDS011;62466;47.566;7.786;2023-01-10T02:45:20;4.25;;;2.95;;
74108;SDS011;62466;47.566;7.786;2023-01-10T02:47:49;3.00;;;2.42;;
74108;SDS011;62466;47.566;7.786;2023-01-10T03:07:09;4.05;;;2.33;;
74108;SDS011;62466;47.566;7.786;2023-01-10T03:12:34;2.97;;;2.60;;
74108;SDS011;62466;47.566;7.786;2023-01-10T03:15:26;2.97;;;2.22;;
74108;SDS011;62466;47.566;7.786;2023-01-10T03:17:55;4.18;;;2.42;;
74108;SDS011;62466;47.566;7.786;2023-01-10T03:20:23;2.50;;;2.33;;
74108;SDS011;62466;47.566;7.786;2023-01-10T03:22:50;3.35;;;2.58;;
74108;SDS011;62466;47.566;7.786;2023-01-10T03:25:17;2.55;;;2.35;;
74108;SDS011;62466;47.566;7.786;2023-01-10T03:33:23;3.78;;;2.40;;
74108;SDS011;62466;47.566;7.786;2023-01-10T03:41:07;4.82;;;2.45;;
74108;SDS011;62466;47.566;7.786;2023-01-10T03:43:50;2.33;;;2.10;;
74108;SDS011;62466;47.566;7.786;2023-01-10T03:49:10;2.97;;;1.92;;
74108;SDS011;62466;47.566;7.786;2023-01-10T03:51:37;2.72;;;2.33;;
74108;SDS011;62466;47.566;7.786;2023-01-10T03:54:03;2.53;;;2.03;;
74108;SDS011;62466;47.566;7.786;2023-01-10T03:56:29;4.50;;;2.40;;
74108;SDS011;62466;47.566;7.786;2023-01-10T03:58:55;4.68;;;3.45;;
74108;SDS011;62466;47.566;7.786;2023-01-10T04:01:20;4.57;;;2.70;;
74108;SDS011;62466;47.566;7.786;2023-01-10T04:03:46;2.28;;;2.05;;
74108;SDS011;62466;47.566;7.786;2023-01-10T04:06:12;9.25;;;2.40;;
74108;SDS011;62466;47.566;7.786;2023-01-10T04:08:37;4.30;;;2.28;;
74108;SDS011;62466;47.566;7.786;2023-01-10T04:11:03;3.92;;;2.47;;
74108;SDS011;62466;47.566;7.786;2023-01-10T04:13:29;2.67;;;2.47;;
74108;SDS011;62466;47.566;7.786;2023-01-10T04:15:54;5.50;;;2.78;;
74108;SDS011;62466;47.566;7.786;2023-01-10T04:18:20;3.33;;;2.47;;
74108;SDS011;62466;47.566;7.786;2023-01-10T04:20:46;2.40;;;2.25;;
74108;SDS011;62466;47.566;7.786;2023-01-10T04:23:11;6.07;;;2.80;;
74108;SDS011;62466;47.566;7.786;2023-01-10T04:25:37;5.88;;;3.00;;
74108;SDS011;62466;47.566;7.786;2023-01-10T04:28:02;6.30;;;2.85;;
74108;SDS011;62466;47.566;7.786;2023-01-10T04:30:28;5.43;;;2.55;;
74108;SDS011;62466;47.566;7.786;2023-01-10T04:32:54;6.28;;;2.72;;
74108;SDS011;62466;47.566;7.786;2023-01-10T04:35:19;4.03;;;2.60;;
74108;SDS011;62466;47.566;7.786;2023-01-10T04:37:49;4.30;;;3.83;;
74108;SDS011;62466;47.566;7.786;2023-01-10T04:40:14;4.65;;;2.35;;
74108;SDS011;62466;47.566;7.786;2023-01-10T04:42:43;4.65;;;2.40;;
74108;SDS011;62466;47.566;7.786;2023-01-10T04:45:09;4.80;;;2.38;;
74108;SDS011;62466;47.566;7.786;2023-01-10T04:47:37;3.13;;;2.30;;
74108;SDS011;62466;47.566;7.786;2023-01-10T04:50:03;3.67;;;2.53;;
74108;SDS011;62466;47.566;7.786;2023-01-10T04:52:29;3.50;;;2.55;;
74108;SDS011;62466;47.566;7.786;2023-01-10T04:54:54;7.65;;;3.28;;
74108;SDS011;62466;47.566;7.786;2023-01-10T04:57:21;4.63;;;2.28;;
74108;SDS011;62466;47.566;7.786;2023-01-10T04:59:47;7.85;;;2.95;;
74108;SDS011;62466;47.566;7.786;2023-01-10T05:02:12;4.30;;;3.20;;
74108;SDS011;62466;47.566;7.786;2023-01-10T05:04:38;8.23;;;3.95;;
74108;SDS011;62466;47.566;7.786;2023-01-10T05:07:03;4.93;;;2.50;;
74108;SDS011;62466;47.566;7.786;2023-01-10T05:09:29;4.90;;;2.30;;
74108;SDS011;62466;47.566;7.786;2023-01-10T05:11:55;5.97;;;2.72;;
74108;SDS011;62466;47.566;7.786;2023-01-10T05:14:20;5.68;;;2.70;;
74108;SDS011;62466;47.566;7.786;2023-01-10T05:16:46;4.22;;;2.28;;
74108;SDS011;62466;47.566;7.786;2023-01-10T05:19:12;2.80;;;2.30;;
74108;SDS011;62466;47.566;7.786;2023-01-10T05:21:40;6.88;;;2.47;;
74108;SDS011;62466;47.566;7.786;2023-01-10T05:24:05;6.88;;;2.80;;
74108;SDS011;62466;47.566;7.786;2023-01-10T05:26:31;6.47;;;2.38;;
74108;SDS011;62466;47.566;7.786;2023-01-10T05:28:56;3.53;;;2.90;;
74108;SDS011;62466;47.566;7.786;2023-01-10T05:31:22;5.25;;;2.88;;
74108;SDS011;62466;47.566;7.786;2023-01-10T05:33:49;7.68;;;2.55;;
74108;SDS011;62466;47.566;7.786;2023-01-10T05:36:16;4.30;;;2.22;;
74108;SDS011;62466;47.566;7.786;2023-01-10T05:38:43;8.10;;;2.80;;
74108;SDS011;62466;47.566;7.786;2023-01-10T05:41:12;4.95;;;2.92;;
74108;SDS011;62466;47.566;7.786;2023-01-10T05:43:43;3.63;;;2.47;;
74108;SDS011;62466;47.566;7.786;2023-01-10T05:46:09;3.55;;;2.80;;
74108;SDS011;62466;47.566;7.786;2023-01-10T05:48:35;3.38;;;2.42;;
74108;SDS011;62466;47.566;7.786;2023-01-10T05:51:00;6.10;;;2.85;;
74108;SDS011;62466;47.566;7.786;2023-01-10T05:53:27;3.33;;;2.63;;
74108;SDS011;62466;47.566;7.786;2023-01-10T05:55:53;2.28;;;1.95;;
74108;SDS011;62466;47.566;7.786;2023-01-10T05:58:18;3.63;;;2.55;;
74108;SDS011;62466;47.566;7.786;2023-01-10T06:00:44;4.85;;;2.38;;
74108;SDS011;62466;47.566;7.786;2023-01-10T06:03:12;5.70;;;2.53;;
74108;SDS011;62466;47.566;7.786;2023-01-10T06:05:44;2.80;;;2.58;;
74108;SDS011;62466;47.566;7.786;2023-01-10T06:08:13;6.22;;;3.15;;
74108;SDS011;62466;47.566;7.786;2023-01-10T06:10:39;2.97;;;2.75;;
74108;SDS011;62466;47.566;7.786;2023-01-10T06:13:04;5.50;;;2.72;;
74108;SDS011;62466;47.566;7.786;2023-01-10T06:15:31;3.20;;;2.40;;
74108;SDS011;62466;47.566;7.786;2023-01-10T06:17:57;3.58;;;2.55;;
74108;SDS011;62466;47.566;7.786;2023-01-10T06:20:26;7.90;;;2.60;;
74108;SDS011;62466;47.566;7.786;2023-01-10T06:22:52;3.80;;;2.95;;
74108;SDS011;62466;47.566;7.786;2023-01-10T06:25:17;4.38;;;2.60;;
74108;SDS011;62466;47.566;7.786;2023-01-10T06:27:43;4.95;;;2.78;;
74108;SDS011;62466;47.566;7.786;2023-01-10T06:30:09;3.03;;;2.60;;
74108;SDS011;62466;47.566;7.786;2023-01-10T06:32:36;6.30;;;3.38;;
74108;SDS011;62466;47.566;7.786;2023-01-10T06:35:01;4.68;;;2.47;;
74108;SDS011;62466;47.566;7.786;2023-01-10T06:37:27;6.28;;;2.63;;
74108;SDS011;62466;47.566;7.786;2023-01-10T06:39:52;4.35;;;2.67;;
74108;SDS011;62466;47.566;7.786;2023-01-10T06:42:18;3.35;;;2.60;;
74108;SDS011;62466;47.566;7.786;2023-01-10T06:44:43;3.38;;;2.72;;
74108;SDS011;62466;47.566;7.786;2023-01-10T06:47:09;4.22;;;2.55;;
74108;SDS011;62466;47.566;7.786;2023-01-10T06:49:34;3.20;;;2.30;;
74108;SDS011;62466;47.566;7.786;2023-01-10T06:51:59;5.72;;;2.30;;
74108;SDS011;62466;47.566;7.786;2023-01-10T06:54:25;3.45;;;2.40;;
74108;SDS011;62466;47.566;7.786;2023-01-10T06:56:50;2.70;;;2.50;;
74108;SDS011;62466;47.566;7.786;2023-01-10T06:59:16;4.13;;;2.65;;
74108;SDS011;62466;47.566;7.786;2023-01-10T07:01:41;4.78;;;2.88;;
74108;SDS011;62466;47.566;7.786;2023-01-10T07:04:06;7.03;;;2.70;;
74108;SDS011;62466;47.566;7.786;2023-01-10T07:06:36;3.50;;;2.40;;
74108;SDS011;62466;47.566;7.786;2023-01-10T07:09:01;4.88;;;2.67;;
74108;SDS011;62466;47.566;7.786;2023-01-10T07:11:28;5.13;;;2.42;;
74108;SDS011;62466;47.566;7.786;2023-01-10T07:13:53;2.85;;;2.53;;
74108;SDS011;62466;47.566;7.786;2023-01-10T07:16:18;3.22;;;2.63;;
74108;SDS011;62466;47.566;7.786;2023-01-10T07:18:44;3.58;;;2.40;;
74108;SDS011;62466;47.566;7.786;2023-01-10T07:21:10;5.07;;;2.40;;
74108;SDS011;62466;47.566;7.786;2023-01-10T07:23:36;4.22;;;2.28;;
74108;SDS011;62466;47.566;7.786;2023-01-10T07:26:08;6.45;;;2.88;;
74108;SDS011;62466;47.566;7.786;2023-01-10T07:28:35;3.35;;;2.38;;
74108;SDS011;62466;47.566;7.786;2023-01-10T07:31:01;4.22;;;3.05;;
74108;SDS011;62466;47.566;7.786;2023-01-10T07:33:27;2.92;;;2.72;;
74108;SDS011;62466;47.566;7.786;2023-01-10T07:35:53;5.05;;;2.97;;
74108;SDS011;62466;47.566;7.786;2023-01-10T07:38:19;4.47;;;2.58;;
74108;SDS011;62466;47.566;7.786;2023-01-10T07:40:45;3.17;;;2.70;;
74108;SDS011;62466;47.566;7.786;2023-01-10T07:43:10;6.65;;;3.13;;
74108;SDS011;62466;47.566;7.786;2023-01-10T07:45:35;6.22;;;3.03;;
74108;SDS011;62466;47.566;7.786;2023-01-10T07:48:02;4.78;;;3.00;;
74108;SDS011;62466;47.566;7.786;2023-01-10T07:50:29;6.03;;;3.38;;
74108;SDS011;62466;47.566;7.786;2023-01-10T07:52:58;7.47;;;4.03;;
74108;SDS011;62466;47.566;7.786;2023-01-10T07:55:24;5.35;;;4.35;;
74108;SDS011;62466;47.566;7.786;2023-01-10T07:57:49;8.18;;;4.07;;
74108;SDS011;62466;47.566;7.786;2023-01-10T08:00:16;6.18;;;5.15;;
74108;SDS011;62466;47.566;7.786;2023-01-10T08:02:42;7.93;;;4.63;;
74108;SDS011;62466;47.566;7.786;2023-01-10T08:05:07;8.50;;;4.68;;
74108;SDS011;62466;47.566;7.786;2023-01-10T08:07:33;9.88;;;5.00;;
74108;SDS011;62466;47.566;7.786;2023-01-10T08:09:58;10.48;;;5.90;;
74108;SDS011;62466;47.566;7.786;2023-01-10T08:12:23;7.70;;;5.07;;
74108;SDS011;62466;47.566;7.786;2023-01-10T08:14:49;11.27;;;5.65;;
74108;SDS011;62466;47.566;7.786;2023-01-10T08:17:15;6.43;;;4.63;;
74108;SDS011;62466;47.566;7.786;2023-01-10T08:19:41;5.43;;;4.40;;
74108;SDS011;62466;47.566;7.786;2023-01-10T08:22:07;5.22;;;4.40;;
74108;SDS011;62466;47.566;7.786;2023-01-10T08:24:33;7.95;;;4.88;;
74108;SDS011;62466;47.566;7.786;2023-01-10T08:26:58;7.85;;;4.68;;
74108;SDS011;62466;47.566;7.786;2023-01-10T08:29:24;6.55;;;3.55;;
74108;SDS011;62466;47.566;7.786;2023-01-10T08:31:50;6.57;;;3.65;;
74108;SDS011;62466;47.566;7.786;2023-01-10T08:34:15;4.18;;;3.65;;
74108;SDS011;62466;47.566;7.786;2023-01-10T08:36:41;5.75;;;3.90;;
74108;SDS011;62466;47.566;7.786;2023-01-10T08:39:06;4.00;;;3.60;;
74108;SDS011;62466;47.566;7.786;2023-01-10T08:41:32;7.18;;;4.03;;
74108;SDS011;62466;47.566;7.786;2023-01-10T08:43:57;6.50;;;4.10;;
74108;SDS011;62466;47.566;7.786;2023-01-10T08:46:23;8.40;;;4.20;;
74108;SDS011;62466;47.566;7.786;2023-01-10T08:48:48;8.27;;;4.30;;
74108;SDS011;62466;47.566;7.786;2023-01-10T08:51:14;6.05;;;4.07;;
74108;SDS011;62466;47.566;7.786;2023-01-10T08:53:40;10.98;;;4.15;;
74108;SDS011;62466;47.566;7.786;2023-01-10T08:56:06;7.45;;;3.80;;
74108;SDS011;62466;47.566;7.786;2023-01-10T08:58:32;6.15;;;4.10;;
74108;SDS011;62466;47.566;7.786;2023-01-10T09:00:57;5.82;;;3.80;;
74108;SDS011;62466;47.566;7.786;2023-01-10T09:03:23;9.15;;;5.15;;
74108;SDS011;62466;47.566;7.786;2023-01-10T09:05:48;10.70;;;6.07;;
74108;SDS011;62466;47.566;7.786;2023-01-10T09:08:14;6.88;;;4.60;;
74108;SDS011;62466;47.566;7.786;2023-01-10T09:10:40;7.60;;;5.60;;
74108;SDS011;62466;47.566;7.786;2023-01-10T09:13:06;8.55;;;5.13;;
74108;SDS011;62466;47.566;7.786;2023-01-10T09:15:32;8.30;;;5.03;;
74108;SDS011;62466;47.566;7.786;2023-01-10T09:18:00;8.23;;;4.07;;
74108;SDS011;62466;47.566;7.786;2023-01-10T09:20:28;5.35;;;3.75;;
74108;SDS011;62466;47.566;7.786;2023-01-10T09:22:54;10.52;;;4.53;;
74108;SDS011;62466;47.566;7.786;2023-01-10T09:25:21;7.32;;;3.67;;
74108;SDS011;62466;47.566;7.786;2023-01-10T09:27:46;11.05;;;3.67;;
74108;SDS011;62466;47.566;7.786;2023-01-10T09:30:12;4.03;;;3.00;;
74108;SDS011;62466;47.566;7.786;2023-01-10T09:32:38;8.35;;;3.70;;
74108;SDS011;62466;47.566;7.786;2023-01-10T09:35:03;5.60;;;3.38;;
74108;SDS011;62466;47.566;7.786;2023-01-10T09:37:29;5.57;;;3.22;;
74108;SDS011;62466;47.566;7.786;2023-01-10T09:39:54;3.33;;;3.03;;
74108;SDS011;62466;47.566;7.786;2023-01-10T09:47:54;7.18;;;3.50;;
74108;SDS011;62466;47.566;7.786;2023-01-10T09:53:05;7.32;;;3.10;;
74108;SDS011;62466;47.566;7.786;2023-01-10T09:55:35;5.78;;;3.00;;
74108;SDS011;62466;47.566;7.786;2023-01-10T09:58:06;8.93;;;2.72;;
74108;SDS011;62466;47.566;7.786;2023-01-10T10:00:40;6.57;;;3.05;;
74108;SDS011;62466;47.566;7.786;2023-01-10T10:06:03;6.55;;;2.17;;
74108;SDS011;62466;47.566;7.786;2023-01-10T10:08:29;6.38;;;2.80;;
74108;SDS011;62466;47.566;7.786;2023-01-10T10:21:37;4.07;;;2.10;;
74108;SDS011;62466;47.566;7.786;2023-01-10T10:27:22;4.85;;;2.15;;
74108;SDS011;62466;47.566;7.786;2023-01-10T10:29:58;5.63;;;1.80;;
74108;SDS011;62466;47.566;7.786;2023-01-10T10:32:53;7.05;;;2.00;;
74108;SDS011;62466;47.566;7.786;2023-01-10T10:38:00;4.25;;;2.22;;
74108;SDS011;62466;47.566;7.786;2023-01-10T10:40:29;4.43;;;2.22;;
74108;SDS011;62466;47.566;7.786;2023-01-10T10:42:57;4.28;;;2.40;;
74108;SDS011;62466;47.566;7.786;2023-01-10T10:45:30;6.28;;;2.42;;
74108;SDS011;62466;47.566;7.786;2023-01-10T10:48:01;3.55;;;2.10;;
74108;SDS011;62466;47.566;7.786;2023-01-10T10:50:32;3.35;;;2.28;;
74108;SDS011;62466;47.566;7.786;2023-01-10T10:53:02;6.30;;;2.03;;
74108;SDS011;62466;47.566;7.786;2023-01-10T10:55:29;5.72;;;2.10;;
74108;SDS011;62466;47.566;7.786;2023-01-10T10:57:56;7.55;;;2.83;;
74108;SDS011;62466;47.566;7.786;2023-01-10T11:00:21;8.27;;;3.13;;
74108;SDS011;62466;47.566;7.786;2023-01-10T11:02:49;7.35;;;2.47;;
74108;SDS011;62466;47.566;7.786;2023-01-10T11:05:22;6.70;;;2.92;;
74108;SDS011;62466;47.566;7.786;2023-01-10T11:07:51;6.30;;;2.75;;
74108;SDS011;62466;47.566;7.786;2023-01-10T11:10:21;7.03;;;2.58;;
74108;SDS011;62466;47.566;7.786;2023-01-10T11:13:00;7.93;;;3.45;;
74108;SDS011;62466;47.566;7.786;2023-01-10T11:15:39;6.47;;;2.33;;
74108;SDS011;62466;47.566;7.786;2023-01-10T11:18:11;6.25;;;2.88;;
74108;SDS011;62466;47.566;7.786;2023-01-10T11:20:45;8.30;;;3.33;;
74108;SDS011;62466;47.566;7.786;2023-01-10T11:23:19;13.18;;;4.28;;
74108;SDS011;62466;47.566;7.786;2023-01-10T11:25:46;10.65;;;4.25;;
74108;SDS011;62466;47.566;7.786;2023-01-10T11:28:13;11.55;;;4.50;;
74108;SDS011;62466;47.566;7.786;2023-01-10T11:30:44;7.03;;;4.22;;
74108;SDS011;62466;47.566;7.786;2023-01-10T11:33:16;10.48;;;5.03;;
74108;SDS011;62466;47.566;7.786;2023-01-10T11:35:55;4.93;;;3.60;;
74108;SDS011;62466;47.566;7.786;2023-01-10T11:38:22;11.68;;;3.90;;
74108;SDS011;62466;47.566;7.786;2023-01-10T11:41:31;9.90;;;3.63;;
74108;SDS011;62466;47.566;7.786;2023-01-10T11:43:43;12.77;;;4.22;;
74108;SDS011;62466;47.566;7.786;2023-01-10T11:46:14;8.38;;;3.20;;
74108;SDS011;62466;47.566;7.786;2023-01-10T11:51:26;14.93;;;4.72;;
74108;SDS011;62466;47.566;7.786;2023-01-10T11:54:39;14.85;;;5.63;;
74108;SDS011;62466;47.566;7.786;2023-01-10T11:57:02;14.30;;;5.43;;
74108;SDS011;62466;47.566;7.786;2023-01-10T11:59:32;9.85;;;4.47;;
74108;SDS011;62466;47.566;7.786;2023-01-10T12:02:19;7.78;;;3.65;;
74108;SDS011;62466;47.566;7.786;2023-01-10T12:04:47;12.48;;;3.92;;
74108;SDS011;62466;47.566;7.786;2023-01-10T12:07:13;4.63;;;2.92;;
74108;SDS011;62466;47.566;7.786;2023-01-10T12:09:40;5.55;;;3.13;;
74108;SDS011;62466;47.566;7.786;2023-01-10T12:14:52;13.02;;;4.57;;
74108;SDS011;62466;47.566;7.786;2023-01-10T12:17:25;9.75;;;3.75;;
74108;SDS011;62466;47.566;7.786;2023-01-10T12:19:53;7.55;;;4.05;;
74108;SDS011;62466;47.566;7.786;2023-01-10T12:22:37;11.50;;;5.05;;
74108;SDS011;62466;47.566;7.786;2023-01-10T12:25:05;8.73;;;4.40;;
74108;SDS011;62466;47.566;7.786;2023-01-10T12:27:39;8.00;;;3.65;;
74108;SDS011;62466;47.566;7.786;2023-01-10T12:30:10;8.13;;;3.75;;
74108;SDS011;62466;47.566;7.786;2023-01-10T12:32:52;9.20;;;3.60;;
74108;SDS011;62466;47.566;7.786;2023-01-10T12:35:21;11.75;;;3.53;;
74108;SDS011;62466;47.566;7.786;2023-01-10T12:41:14;8.43;;;2.83;;
74108;SDS011;62466;47.566;7.786;2023-01-10T12:44:04;6.68;;;2.42;;
74108;SDS011;62466;47.566;7.786;2023-01-10T12:46:44;6.88;;;2.17;;
74108;SDS011;62466;47.566;7.786;2023-01-10T12:49:17;5.03;;;2.53;;
74108;SDS011;62466;47.566;7.786;2023-01-10T12:51:46;4.57;;;2.47;;
74108;SDS011;62466;47.566;7.786;2023-01-10T12:54:15;3.92;;;2.05;;
74108;SDS011;62466;47.566;7.786;2023-01-10T12:56:47;4.38;;;2.38;;
74108;SDS011;62466;47.566;7.786;2023-01-10T12:59:16;4.63;;;2.30;;
74108;SDS011;62466;47.566;7.786;2023-01-10T13:01:54;3.20;;;1.50;;
74108;SDS011;62466;47.566;7.786;2023-01-10T13:04:25;6.20;;;1.85;;
74108;SDS011;62466;47.566;7.786;2023-01-10T13:06:51;7.45;;;1.95;;
74108;SDS011;62466;47.566;7.786;2023-01-10T13:11:49;2.72;;;1.40;;
74108;SDS011;62466;47.566;7.786;2023-01-10T13:14:21;7.82;;;2.38;;
74108;SDS011;62466;47.566;7.786;2023-01-10T13:16:55;8.50;;;3.03;;
74108;SDS011;62466;47.566;7.786;2023-01-10T13:19:24;5.40;;;1.90;;
74108;SDS011;62466;47.566;7.786;2023-01-10T13:21:55;3.72;;;1.83;;
74108;SDS011;62466;47.566;7.786;2023-01-10T13:24:37;9.10;;;2.75;;
74108;SDS011;62466;47.566;7.786;2023-01-10T13:27:02;3.42;;;1.77;;
74108;SDS011;62466;47.566;7.786;2023-01-10T13:29:29;3.85;;;1.60;;
74108;SDS011;62466;47.566;7.786;2023-01-10T13:31:57;6.97;;;1.80;;
74108;SDS011;62466;47.566;7.786;2023-01-10T13:34:26;5.32;;;1.52;;
74108;SDS011;62466;47.566;7.786;2023-01-10T13:39:30;5.35;;;1.75;;
74108;SDS011;62466;47.566;7.786;2023-01-10T13:52:47;2.40;;;1.63;;
74108;SDS011;62466;47.566;7.786;2023-01-10T13:57:59;5.88;;;2.30;;
74108;SDS011;62466;47.566;7.786;2023-01-10T14:08:53;5.93;;;3.08;;
74108;SDS011;62466;47.566;7.786;2023-01-10T14:11:20;6.13;;;2.10;;
74108;SDS011;62466;47.566;7.786;2023-01-10T14:13:49;3.75;;;1.95;;
74108;SDS011;62466;47.566;7.786;2023-01-10T14:16:25;6.75;;;1.80;;
74108;SDS011;62466;47.566;7.786;2023-01-10T14:18:52;5.05;;;1.88;;
74108;SDS011;62466;47.566;7.786;2023-01-10T14:21:20;4.70;;;2.13;;
74108;SDS011;62466;47.566;7.786;2023-01-10T14:23:49;7.45;;;2.03;;
74108;SDS011;62466;47.566;7.786;2023-01-10T14:26:16;5.05;;;2.70;;
74108;SDS011;62466;47.566;7.786;2023-01-10T14:28:56;4.68;;;3.05;;
74108;SDS011;62466;47.566;7.786;2023-01-10T14:31:24;6.90;;;2.80;;
74108;SDS011;62466;47.566;7.786;2023-01-10T14:33:50;6.20;;;3.15;;
74108;SDS011;62466;47.566;7.786;2023-01-10T14:36:37;6.55;;;2.83;;
74108;SDS011;62466;47.566;7.786;2023-01-10T14:39:14;3.70;;;1.80;;
74108;SDS011;62466;47.566;7.786;2023-01-10T14:41:44;7.63;;;2.20;;
74108;SDS011;62466;47.566;7.786;2023-01-10T14:44:26;3.72;;;2.00;;
74108;SDS011;62466;47.566;7.786;2023-01-10T14:47:02;5.10;;;2.25;;
74108;SDS011;62466;47.566;7.786;2023-01-10T14:49:29;4.70;;;2.30;;
74108;SDS011;62466;47.566;7.786;2023-01-10T14:55:09;4.55;;;2.05;;
74108;SDS011;62466;47.566;7.786;2023-01-10T14:57:55;6.93;;;2.42;;
74108;SDS011;62466;47.566;7.786;2023-01-10T15:00:26;8.38;;;2.00;;
74108;SDS011;62466;47.566;7.786;2023-01-10T15:02:56;6.25;;;2.70;;
74108;SDS011;62466;47.566;7.786;2023-01-10T15:05:27;5.78;;;2.38;;
74108;SDS011;62466;47.566;7.786;2023-01-10T15:07:54;6.00;;;2.75;;
74108;SDS011;62466;47.566;7.786;2023-01-10T15:10:27;6.22;;;2.47;;
74108;SDS011;62466;47.566;7.786;2023-01-10T15:12:56;4.68;;;2.88;;
74108;SDS011;62466;47.566;7.786;2023-01-10T15:15:34;4.43;;;2.63;;
74108;SDS011;62466;47.566;7.786;2023-01-10T15:18:01;3.85;;;1.80;;
74108;SDS011;62466;47.566;7.786;2023-01-10T15:20:30;4.72;;;1.98;;
74108;SDS011;62466;47.566;7.786;2023-01-10T15:22:57;2.97;;;2.00;;
74108;SDS011;62466;47.566;7.786;2023-01-10T15:27:52;4.32;;;2.03;;
74108;SDS011;62466;47.566;7.786;2023-01-10T15:30:22;7.95;;;2.33;;
74108;SDS011;62466;47.566;7.786;2023-01-10T15:32:50;4.45;;;1.58;;
74108;SDS011;62466;47.566;7.786;2023-01-10T15:35:17;6.18;;;2.47;;
74108;SDS011;62466;47.566;7.786;2023-01-10T15:37:50;4.22;;;1.83;;
74108;SDS011;62466;47.566;7.786;2023-01-10T15:40:21;2.95;;;1.88;;
74108;SDS011;62466;47.566;7.786;2023-01-10T15:45:50;3.20;;;2.20;;
74108;SDS011;62466;47.566;7.786;2023-01-10T15:51:10;6.75;;;2.78;;
74108;SDS011;62466;47.566;7.786;2023-01-10T15:53:51;4.68;;;3.22;;
74108;SDS011;62466;47.566;7.786;2023-01-10T15:56:39;6.53;;;3.67;;
74108;SDS011;62466;47.566;7.786;2023-01-10T15:59:22;5.55;;;3.50;;
74108;SDS011;62466;47.566;7.786;2023-01-10T16:04:25;11.65;;;4.75;;
74108;SDS011;62466;47.566;7.786;2023-01-10T16:06:52;7.68;;;4.28;;
74108;SDS011;62466;47.566;7.786;2023-01-10T16:09:19;7.00;;;3.38;;
74108;SDS011;62466;47.566;7.786;2023-01-10T16:11:46;6.18;;;3.38;;
74108;SDS011;62466;47.566;7.786;2023-01-10T16:14:31;5.15;;;3.47;;
74108;SDS011;62466;47.566;7.786;2023-01-10T16:17:00;6.03;;;3.60;;
74108;SDS011;62466;47.566;7.786;2023-01-10T16:19:26;9.15;;;3.60;;
74108;SDS011;62466;47.566;7.786;2023-01-10T16:21:52;4.88;;;3.30;;
74108;SDS011;62466;47.566;7.786;2023-01-10T16:24:22;6.38;;;3.63;;
74108;SDS011;62466;47.566;7.786;2023-01-10T16:26:49;7.70;;;4.15;;
74108;SDS011;62466;47.566;7.786;2023-01-10T16:29:15;13.48;;;8.02;;
74108;SDS011;62466;47.566;7.786;2023-01-10T16:31:41;10.15;;;5.70;;
74108;SDS011;62466;47.566;7.786;2023-01-10T16:34:07;6.88;;;5.40;;
74108;SDS011;62466;47.566;7.786;2023-01-10T16:36:33;8.32;;;5.93;;
74108;SDS011;62466;47.566;7.786;2023-01-10T16:39:32;7.60;;;5.70;;
74108;SDS011;62466;47.566;7.786;2023-01-10T16:41:51;9.57;;;5.85;;
74108;SDS011;62466;47.566;7.786;2023-01-10T16:44:35;12.65;;;6.25;;
74108;SDS011;62466;47.566;7.786;2023-01-10T16:47:00;13.20;;;6.07;;
74108;SDS011;62466;47.566;7.786;2023-01-10T16:49:26;14.57;;;7.60;;
74108;SDS011;62466;47.566;7.786;2023-01-10T16:51:52;19.65;;;9.05;;
74108;SDS011;62466;47.566;7.786;2023-01-10T16:54:19;18.70;;;9.57;;
74108;SDS011;62466;47.566;7.786;2023-01-10T16:56:46;13.23;;;7.80;;
74108;SDS011;62466;47.566;7.786;2023-01-10T16:59:12;10.15;;;6.47;;
74108;SDS011;62466;47.566;7.786;2023-01-10T17:01:42;8.82;;;6.22;;
74108;SDS011;62466;47.566;7.786;2023-01-10T17:04:14;13.90;;;7.63;;
74108;SDS011;62466;47.566;7.786;2023-01-10T17:06:43;13.35;;;7.55;;